sensor_id;sensor_type;location;lat;lon;timestamp;pressure;altitude;pressure_sealevel;temperature;humidity
20424;BME280;10371;49.042;8.002;2023-11-19T00:00:41;99823.66;;;9.06;100.00
20424;BME280;10371;49.042;8.002;2023-11-19T00:01:42;99813.50;;;9.03;100.00
20424;BME280;10371;49.042;8.002;2023-11-19T00:02:42;99817.84;;;9.02;100.00
20424;BME280;10371;49.042;8.002;2023-11-19T00:03:42;99821.97;;;9.05;100.00
20424;BME280;10371;49.042;8.002;2023-11-19T00:04:44;99814.69;;;9.10;100.00
20424;BME280;10371;49.042;8.002;2023-11-19T00:05:44;99813.03;;;9.09;100.00
20424;BME280;10371;49.042;8.002;2023-11-19T00:06:48;99810.44;;;9.09;100.00
20424;BME280;10371;49.042;8.002;2023-11-19T00:07:48;99808.88;;;9.06;100.00
20424;BME280;10371;49.042;8.002;2023-11-19T00:08:48;99808.66;;;9.09;100.00
20424;BME280;10371;49.042;8.002;2023-11-19T00:09:50;99808.88;;;9.06;100.00
20424;BME280;10371;49.042;8.002;2023-11-19T00:10:50;99806.41;;;9.05;100.00
20424;BME280;10371;49.042;8.002;2023-11-19T00:11:51;99807.59;;;9.12;100.00
20424;BME280;10371;49.042;8.002;2023-11-19T00:12:51;99812.56;;;9.15;100.00
20424;BME280;10371;49.042;8.002;2023-11-19T00:13:51;99805.84;;;9.12;100.00
20424;BME280;10371;49.042;8.002;2023-11-19T00:14:52;99813.38;;;9.15;100.00
20424;BME280;10371;49.042;8.002;2023-11-19T00:15:53;99806.56;;;9.14;100.00
20424;BME280;10371;49.042;8.002;2023-11-19T00:16:53;99809.97;;;9.15;100.00
20424;BME280;10371;49.042;8.002;2023-11-19T00:17:54;99803.72;;;9.17;100.00
20424;BME280;10371;49.042;8.002;2023-11-19T00:18:54;99801.22;;;9.16;100.00
20424;BME280;10371;49.042;8.002;2023-11-19T00:19:54;99795.78;;;9.19;100.00
20424;BME280;10371;49.042;8.002;2023-11-19T00:20:55;99787.09;;;9.20;100.00
20424;BME280;10371;49.042;8.002;2023-11-19T00:21:55;99791.69;;;9.16;100.00
20424;BME280;10371;49.042;8.002;2023-11-19T00:22:55;99784.72;;;9.17;100.00
20424;BME280;10371;49.042;8.002;2023-11-19T00:23:55;99785.63;;;9.16;100.00
20424;BME280;10371;49.042;8.002;2023-11-19T00:24:58;99780.34;;;9.17;100.00
20424;BME280;10371;49.042;8.002;2023-11-19T00:25:59;99772.41;;;9.19;100.00
20424;BME280;10371;49.042;8.002;2023-11-19T00:26:59;99769.25;;;9.15;100.00
20424;BME280;10371;49.042;8.002;2023-11-19T00:28:00;99769.13;;;9.17;100.00
20424;BME280;10371;49.042;8.002;2023-11-19T00:29:00;99776.09;;;9.16;100.00
20424;BME280;10371;49.042;8.002;2023-11-19T00:30:00;99773.59;;;9.15;100.00
20424;BME280;10371;49.042;8.002;2023-11-19T00:31:00;99778.47;;;9.20;100.00
20424;BME280;10371;49.042;8.002;2023-11-19T00:32:01;99779.28;;;9.20;100.00
20424;BME280;10371;49.042;8.002;2023-11-19T00:33:01;99782.72;;;9.21;100.00
20424;BME280;10371;49.042;8.002;2023-11-19T00:34:02;99770.78;;;9.18;100.00
20424;BME280;10371;49.042;8.002;2023-11-19T00:35:02;99780.22;;;9.19;100.00
20424;BME280;10371;49.042;8.002;2023-11-19T00:36:03;99777.50;;;9.21;100.00
20424;BME280;10371;49.042;8.002;2023-11-19T00:37:03;99779.28;;;9.20;100.00
20424;BME280;10371;49.042;8.002;2023-11-19T00:38:04;99775.97;;;9.18;100.00
20424;BME280;10371;49.042;8.002;2023-11-19T00:39:04;99770.78;;;9.18;100.00
20424;BME280;10371;49.042;8.002;2023-11-19T00:40:06;99765.59;;;9.18;100.00
20424;BME280;10371;49.042;8.002;2023-11-19T00:41:06;99764.88;;;9.16;100.00
20424;BME280;10371;49.042;8.002;2023-11-19T00:42:07;99769.13;;;9.17;100.00
20424;BME280;10371;49.042;8.002;2023-11-19T00:43:07;99771.59;;;9.18;100.00
20424;BME280;10371;49.042;8.002;2023-11-19T00:44:08;99775.03;;;9.19;100.00
20424;BME280;10371;49.042;8.002;2023-11-19T00:45:08;99772.41;;;9.19;100.00
20424;BME280;10371;49.042;8.002;2023-11-19T00:46:09;99774.81;;;9.22;100.00
20424;BME280;10371;49.042;8.002;2023-11-19T00:47:11;99773.13;;;9.21;100.00
20424;BME280;10371;49.042;8.002;2023-11-19T00:48:11;99768.91;;;9.20;100.00
20424;BME280;10371;49.042;8.002;2023-11-19T00:49:11;99778.91;;;9.25;100.00
20424;BME280;10371;49.042;8.002;2023-11-19T00:50:12;99762.50;;;9.24;100.00
20424;BME280;10371;49.042;8.002;2023-11-19T00:51:13;99760.63;;;9.26;100.00
20424;BME280;10371;49.042;8.002;2023-11-19T00:52:14;99760.28;;;9.31;100.00
20424;BME280;10371;49.042;8.002;2023-11-19T00:53:15;99746.47;;;9.30;100.00
20424;BME280;10371;49.042;8.002;2023-11-19T00:54:15;99751.53;;;9.32;100.00
20424;BME280;10371;49.042;8.002;2023-11-19T00:55:16;99748.00;;;9.33;100.00
20424;BME280;10371;49.042;8.002;2023-11-19T00:56:16;99752.25;;;9.34;100.00
20424;BME280;10371;49.042;8.002;2023-11-19T00:57:17;99749.06;;;9.30;100.00
20424;BME280;10371;49.042;8.002;2023-11-19T00:58:17;99750.72;;;9.31;100.00
20424;BME280;10371;49.042;8.002;2023-11-19T00:59:18;99754.03;;;9.33;100.00
20424;BME280;10371;49.042;8.002;2023-11-19T01:00:19;99755.34;;;9.28;100.00
20424;BME280;10371;49.042;8.002;2023-11-19T01:01:19;99757.69;;;9.31;100.00
20424;BME280;10371;49.042;8.002;2023-11-19T01:02:19;99765.25;;;9.34;100.00
20424;BME280;10371;49.042;8.002;2023-11-19T01:03:20;99754.03;;;9.33;100.00
20424;BME280;10371;49.042;8.002;2023-11-19T01:04:20;99757.31;;;9.35;100.00
20424;BME280;10371;49.042;8.002;2023-11-19T01:05:20;99756.50;;;9.35;100.00
20424;BME280;10371;49.042;8.002;2023-11-19T01:06:28;99752.13;;;9.35;100.00
20424;BME280;10371;49.042;8.002;2023-11-19T01:07:28;99751.88;;;9.38;100.00
20424;BME280;10371;49.042;8.002;2023-11-19T01:08:29;99751.66;;;9.42;100.00
20424;BME280;10371;49.042;8.002;2023-11-19T01:09:30;99758.63;;;9.41;100.00
20424;BME280;10371;49.042;8.002;2023-11-19T01:10:32;99758.63;;;9.41;100.00
20424;BME280;10371;49.042;8.002;2023-11-19T01:11:34;99763.72;;;9.43;100.00
20424;BME280;10371;49.042;8.002;2023-11-19T01:12:34;99757.56;;;9.44;100.00
20424;BME280;10371;49.042;8.002;2023-11-19T01:13:35;99752.13;;;9.47;100.00
20424;BME280;10371;49.042;8.002;2023-11-19T01:14:35;99751.19;;;9.48;100.00
20424;BME280;10371;49.042;8.002;2023-11-19T01:15:36;99751.19;;;9.48;100.00
20424;BME280;10371;49.042;8.002;2023-11-19T01:16:36;99749.44;;;9.48;100.00
20424;BME280;10371;49.042;8.002;2023-11-19T01:17:37;99752.13;;;9.47;100.00
20424;BME280;10371;49.042;8.002;2023-11-19T01:18:37;99752.13;;;9.47;100.00
20424;BME280;10371;49.042;8.002;2023-11-19T01:19:38;99745.75;;;9.51;100.00
20424;BME280;10371;49.042;8.002;2023-11-19T01:20:38;99753.81;;;9.48;100.00
20424;BME280;10371;49.042;8.002;2023-11-19T01:21:39;99751.44;;;9.45;100.00
20424;BME280;10371;49.042;8.002;2023-11-19T01:22:39;99754.72;;;9.47;100.00
20424;BME280;10371;49.042;8.002;2023-11-19T01:23:40;99762.41;;;9.48;100.00
20424;BME280;10371;49.042;8.002;2023-11-19T01:24:43;99769.16;;;9.51;100.00
20424;BME280;10371;49.042;8.002;2023-11-19T01:25:44;99769.97;;;9.51;100.00
20424;BME280;10371;49.042;8.002;2023-11-19T01:26:44;99769.97;;;9.51;100.00
20424;BME280;10371;49.042;8.002;2023-11-19T01:27:45;99763.00;;;9.52;100.00
20424;BME280;10371;49.042;8.002;2023-11-19T01:28:45;99757.94;;;9.50;100.00
20424;BME280;10371;49.042;8.002;2023-11-19T01:29:46;99770.56;;;9.55;100.00
20424;BME280;10371;49.042;8.002;2023-11-19T01:30:47;99762.41;;;9.48;100.00
20424;BME280;10371;49.042;8.002;2023-11-19T01:31:50;99767.38;;;9.51;100.00
20424;BME280;10371;49.042;8.002;2023-11-19T01:32:53;99765.34;;;9.55;100.00
20424;BME280;10371;49.042;8.002;2023-11-19T01:33:53;99774.94;;;9.54;100.00
20424;BME280;10371;49.042;8.002;2023-11-19T01:34:53;99767.97;;;9.55;100.00
20424;BME280;10371;49.042;8.002;2023-11-19T01:35:54;99761.84;;;9.56;100.00
20424;BME280;10371;49.042;8.002;2023-11-19T01:36:54;99761.59;;;9.59;100.00
20424;BME280;10371;49.042;8.002;2023-11-19T01:37:54;99758.19;;;9.58;100.00
20424;BME280;10371;49.042;8.002;2023-11-19T01:38:54;99759.00;;;9.59;100.00
20424;BME280;10371;49.042;8.002;2023-11-19T01:39:55;99756.50;;;9.57;100.00
20424;BME280;10371;49.042;8.002;2023-11-19T01:40:58;99758.03;;;9.60;100.00
20424;BME280;10371;49.042;8.002;2023-11-19T01:41:58;99757.94;;;9.61;100.00
20424;BME280;10371;49.042;8.002;2023-11-19T01:42:59;99752.97;;;9.58;100.00
20424;BME280;10371;49.042;8.002;2023-11-19T01:43:59;99746.94;;;9.58;100.00
20424;BME280;10371;49.042;8.002;2023-11-19T01:45:00;99737.00;;;9.52;100.00
20424;BME280;10371;49.042;8.002;2023-11-19T01:46:02;99743.75;;;9.54;100.00
20424;BME280;10371;49.042;8.002;2023-11-19T01:47:06;99729.13;;;9.53;100.00
20424;BME280;10371;49.042;8.002;2023-11-19T01:48:06;99729.94;;;9.54;100.00
20424;BME280;10371;49.042;8.002;2023-11-19T01:49:07;99734.88;;;9.57;100.00
20424;BME280;10371;49.042;8.002;2023-11-19T01:50:07;99731.72;;;9.53;100.00
20424;BME280;10371;49.042;8.002;2023-11-19T01:51:09;99726.63;;;9.52;100.00
20424;BME280;10371;49.042;8.002;2023-11-19T01:52:10;99733.50;;;9.53;100.00
20424;BME280;10371;49.042;8.002;2023-11-19T01:53:10;99726.63;;;9.52;100.00
20424;BME280;10371;49.042;8.002;2023-11-19T01:54:11;99727.56;;;9.51;100.00
20424;BME280;10371;49.042;8.002;2023-11-19T01:55:12;99732.63;;;9.52;100.00
20424;BME280;10371;49.042;8.002;2023-11-19T01:56:14;99731.09;;;9.50;100.00
20424;BME280;10371;49.042;8.002;2023-11-19T01:57:15;99720.94;;;9.47;100.00
20424;BME280;10371;49.042;8.002;2023-11-19T01:58:16;99720.25;;;9.45;100.00
20424;BME280;10371;49.042;8.002;2023-11-19T01:59:17;99729.59;;;9.47;100.00
20424;BME280;10371;49.042;8.002;2023-11-19T02:00:18;99732.06;;;9.49;100.00
20424;BME280;10371;49.042;8.002;2023-11-19T02:01:19;99727.81;;;9.48;100.00
20424;BME280;10371;49.042;8.002;2023-11-19T02:02:19;99732.88;;;9.49;100.00
20424;BME280;10371;49.042;8.002;2023-11-19T02:03:21;99738.69;;;9.53;100.00
20424;BME280;10371;49.042;8.002;2023-11-19T02:04:21;99736.19;;;9.51;100.00
20424;BME280;10371;49.042;8.002;2023-11-19T02:05:22;99738.44;;;9.56;100.00
20424;BME280;10371;49.042;8.002;2023-11-19T02:06:24;99731.56;;;9.55;100.00
20424;BME280;10371;49.042;8.002;2023-11-19T02:07:25;99732.41;;;9.55;100.00
20424;BME280;10371;49.042;8.002;2023-11-19T02:08:26;99734.88;;;9.57;100.00
20424;BME280;10371;49.042;8.002;2023-11-19T02:09:26;99741.47;;;9.61;100.00
20424;BME280;10371;49.042;8.002;2023-11-19T02:10:27;99744.22;;;9.59;100.00
20424;BME280;10371;49.042;8.002;2023-11-19T02:11:28;99741.47;;;9.61;100.00
20424;BME280;10371;49.042;8.002;2023-11-19T02:12:29;99739.59;;;9.63;100.00
20424;BME280;10371;49.042;8.002;2023-11-19T02:13:33;99735.59;;;9.59;100.00
20424;BME280;10371;49.042;8.002;2023-11-19T02:14:36;99743.03;;;9.63;100.00
20424;BME280;10371;49.042;8.002;2023-11-19T02:15:36;99739.34;;;9.66;100.00
20424;BME280;10371;49.042;8.002;2023-11-19T02:16:36;99733.09;;;9.69;100.00
20424;BME280;10371;49.042;8.002;2023-11-19T02:17:37;99732.03;;;9.71;100.00
20424;BME280;10371;49.042;8.002;2023-11-19T02:18:37;99727.78;;;9.70;100.00
20424;BME280;10371;49.042;8.002;2023-11-19T02:19:38;99724.38;;;9.70;100.00
20424;BME280;10371;49.042;8.002;2023-11-19T02:20:38;99727.53;;;9.73;100.00
20424;BME280;10371;49.042;8.002;2023-11-19T02:21:38;99732.75;;;9.73;100.00
20424;BME280;10371;49.042;8.002;2023-11-19T02:22:39;99723.88;;;9.76;100.00
20424;BME280;10371;49.042;8.002;2023-11-19T02:23:40;99722.91;;;9.77;100.00
20424;BME280;10371;49.042;8.002;2023-11-19T02:24:41;99728.03;;;9.78;100.00
20424;BME280;10371;49.042;8.002;2023-11-19T02:25:43;99720.22;;;9.78;100.00
20424;BME280;10371;49.042;8.002;2023-11-19T02:26:53;99724.34;;;9.81;100.00
20424;BME280;10371;49.042;8.002;2023-11-19T02:27:58;99720.69;;;9.83;100.00
20424;BME280;10371;49.042;8.002;2023-11-19T02:28:59;99724.22;;;9.82;100.00
20424;BME280;10371;49.042;8.002;2023-11-19T02:30:00;99722.56;;;9.81;100.00
20424;BME280;10371;49.042;8.002;2023-11-19T02:31:01;99721.75;;;9.81;100.00
20424;BME280;10371;49.042;8.002;2023-11-19T02:32:01;99721.03;;;9.79;100.00
20424;BME280;10371;49.042;8.002;2023-11-19T02:33:02;99718.44;;;9.79;100.00
20424;BME280;10371;49.042;8.002;2023-11-19T02:34:05;99721.84;;;9.79;100.00
20424;BME280;10371;49.042;8.002;2023-11-19T02:35:06;99723.50;;;9.80;100.00
20424;BME280;10371;49.042;8.002;2023-11-19T02:36:08;99724.09;;;9.84;100.00
20424;BME280;10371;49.042;8.002;2023-11-19T02:37:08;99720.53;;;9.85;100.00
20424;BME280;10371;49.042;8.002;2023-11-19T02:38:10;99724.22;;;9.82;100.00
20424;BME280;10371;49.042;8.002;2023-11-19T02:39:11;99720.44;;;9.87;100.00
20424;BME280;10371;49.042;8.002;2023-11-19T02:40:13;99717.38;;;9.81;100.00
20424;BME280;10371;49.042;8.002;2023-11-19T02:41:14;99705.09;;;9.83;100.00
20424;BME280;10371;49.042;8.002;2023-11-19T02:42:14;99713.31;;;9.89;100.00
20424;BME280;10371;49.042;8.002;2023-11-19T02:43:15;99705.41;;;9.90;100.00
20424;BME280;10371;49.042;8.002;2023-11-19T02:44:15;99700.31;;;9.89;100.00
20424;BME280;10371;49.042;8.002;2023-11-19T02:45:15;99693.72;;;9.84;100.00
20424;BME280;10371;49.042;8.002;2023-11-19T02:46:16;99693.72;;;9.84;100.00
20424;BME280;10371;49.042;8.002;2023-11-19T02:47:19;99691.84;;;9.87;100.00
20424;BME280;10371;49.042;8.002;2023-11-19T02:48:23;99691.69;;;9.88;100.00
20424;BME280;10371;49.042;8.002;2023-11-19T02:49:25;99685.69;;;9.88;100.00
20424;BME280;10371;49.042;8.002;2023-11-19T02:50:25;99690.88;;;9.88;100.00
20424;BME280;10371;49.042;8.002;2023-11-19T02:51:25;99693.94;;;9.93;100.00
20424;BME280;10371;49.042;8.002;2023-11-19T02:52:27;99687.78;;;9.94;100.00
20424;BME280;10371;49.042;8.002;2023-11-19T02:53:28;99694.75;;;9.93;100.00
20424;BME280;10371;49.042;8.002;2023-11-19T02:54:29;99693.94;;;9.93;100.00
20424;BME280;10371;49.042;8.002;2023-11-19T02:55:29;99702.47;;;9.95;100.00
20424;BME280;10371;49.042;8.002;2023-11-19T02:56:34;99704.09;;;9.96;100.00
20424;BME280;10371;49.042;8.002;2023-11-19T02:57:37;99709.28;;;9.96;100.00
20424;BME280;10371;49.042;8.002;2023-11-19T02:58:37;99710.25;;;9.95;100.00
20424;BME280;10371;49.042;8.002;2023-11-19T02:59:39;99710.00;;;9.98;100.00
20424;BME280;10371;49.042;8.002;2023-11-19T03:00:41;99705.63;;;9.98;100.00
20424;BME280;10371;49.042;8.002;2023-11-19T03:01:48;99711.66;;;9.99;100.00
20424;BME280;10371;49.042;8.002;2023-11-19T03:02:51;99695.94;;;10.00;100.00
20424;BME280;10371;49.042;8.002;2023-11-19T03:04:10;99708.81;;;10.02;100.00
20424;BME280;10371;49.042;8.002;2023-11-19T03:05:13;99708.09;;;10.00;100.00
20424;BME280;10371;49.042;8.002;2023-11-19T03:06:14;99703.84;;;9.99;100.00
20424;BME280;10371;49.042;8.002;2023-11-19T03:07:15;99707.88;;;10.03;100.00
20424;BME280;10371;49.042;8.002;2023-11-19T03:08:15;99690.34;;;10.05;100.00
20424;BME280;10371;49.042;8.002;2023-11-19T03:09:16;99694.63;;;10.06;100.00
20424;BME280;10371;49.042;8.002;2023-11-19T03:10:16;99691.06;;;10.07;100.00
20424;BME280;10371;49.042;8.002;2023-11-19T03:11:17;99691.75;;;10.09;100.00
20424;BME280;10371;49.042;8.002;2023-11-19T03:12:17;99686.41;;;10.11;100.00
20424;BME280;10371;49.042;8.002;2023-11-19T03:13:17;99681.09;;;10.12;100.00
20424;BME280;10371;49.042;8.002;2023-11-19T03:14:18;99673.56;;;10.09;100.00
20424;BME280;10371;49.042;8.002;2023-11-19T03:15:18;99673.31;;;10.12;100.00
20424;BME280;10371;49.042;8.002;2023-11-19T03:16:19;99666.06;;;10.16;100.00
20424;BME280;10371;49.042;8.002;2023-11-19T03:17:19;99664.28;;;10.16;100.00
20424;BME280;10371;49.042;8.002;2023-11-19T03:18:20;99662.28;;;10.20;100.00
20424;BME280;10371;49.042;8.002;2023-11-19T03:19:20;99658.00;;;10.19;100.00
20424;BME280;10371;49.042;8.002;2023-11-19T03:20:21;99663.22;;;10.19;100.00
20424;BME280;10371;49.042;8.002;2023-11-19T03:21:30;99666.78;;;10.18;100.00
20424;BME280;10371;49.042;8.002;2023-11-19T03:22:31;99666.78;;;10.18;100.00
20424;BME280;10371;49.042;8.002;2023-11-19T03:23:34;99665.00;;;10.18;100.00
20424;BME280;10371;49.042;8.002;2023-11-19T03:24:35;99658.16;;;10.17;100.00
20424;BME280;10371;49.042;8.002;2023-11-19T03:25:35;99649.84;;;10.23;100.00
20424;BME280;10371;49.042;8.002;2023-11-19T03:26:37;99649.25;;;10.31;100.00
20424;BME280;10371;49.042;8.002;2023-11-19T03:27:39;99647.84;;;10.27;100.00
20424;BME280;10371;49.042;8.002;2023-11-19T03:28:39;99660.00;;;10.26;100.00
20424;BME280;10371;49.042;8.002;2023-11-19T03:29:39;99662.13;;;10.21;100.00
20424;BME280;10371;49.042;8.002;2023-11-19T03:30:40;99661.22;;;10.22;100.00
20424;BME280;10371;49.042;8.002;2023-11-19T03:31:43;99671.47;;;10.24;100.00
20424;BME280;10371;49.042;8.002;2023-11-19T03:32:43;99660.97;;;10.25;100.00
20424;BME280;10371;49.042;8.002;2023-11-19T03:33:44;99668.88;;;10.24;100.00
20424;BME280;10371;49.042;8.002;2023-11-19T03:34:44;99670.50;;;10.25;100.00
20424;BME280;10371;49.042;8.002;2023-11-19T03:35:45;99667.34;;;10.21;100.00
20424;BME280;10371;49.042;8.002;2023-11-19T03:36:46;99669.00;;;10.22;100.00
20424;BME280;10371;49.042;8.002;2023-11-19T03:37:46;99668.06;;;10.23;100.00
20424;BME280;10371;49.042;8.002;2023-11-19T03:38:46;99670.91;;;10.20;100.00
20424;BME280;10371;49.042;8.002;2023-11-19T03:39:47;99673.13;;;10.25;100.00
20424;BME280;10371;49.042;8.002;2023-11-19T03:40:47;99672.06;;;10.27;100.00
20424;BME280;10371;49.042;8.002;2023-11-19T03:41:47;99680.72;;;10.28;100.00
20424;BME280;10371;49.042;8.002;2023-11-19T03:42:47;99675.59;;;10.26;100.00
20424;BME280;10371;49.042;8.002;2023-11-19T03:43:48;99671.25;;;10.27;100.00
20424;BME280;10371;49.042;8.002;2023-11-19T03:44:48;99673.75;;;10.28;100.00
20424;BME280;10371;49.042;8.002;2023-11-19T03:45:49;99670.19;;;10.29;100.00
20424;BME280;10371;49.042;8.002;2023-11-19T03:46:50;99675.38;;;10.29;100.00
20424;BME280;10371;49.042;8.002;2023-11-19T03:47:50;99671.13;;;10.28;100.00
20424;BME280;10371;49.042;8.002;2023-11-19T03:48:51;99679.50;;;10.32;100.00
20424;BME280;10371;49.042;8.002;2023-11-19T03:49:51;99669.94;;;10.33;100.00
20424;BME280;10371;49.042;8.002;2023-11-19T03:50:52;99667.56;;;10.29;100.00
20424;BME280;10371;49.042;8.002;2023-11-19T03:51:52;99670.19;;;10.29;100.00
20424;BME280;10371;49.042;8.002;2023-11-19T03:52:52;99671.13;;;10.28;100.00
20424;BME280;10371;49.042;8.002;2023-11-19T03:53:53;99675.13;;;10.33;100.00
20424;BME280;10371;49.042;8.002;2023-11-19T03:54:53;99675.94;;;10.33;100.00
20424;BME280;10371;49.042;8.002;2023-11-19T03:55:55;99680.97;;;10.46;100.00
20424;BME280;10371;49.042;8.002;2023-11-19T03:56:55;99672.47;;;10.44;100.00
20424;BME280;10371;49.042;8.002;2023-11-19T03:57:56;99670.94;;;10.41;100.00
20424;BME280;10371;49.042;8.002;2023-11-19T03:58:56;99671.91;;;10.40;100.00
20424;BME280;10371;49.042;8.002;2023-11-19T03:59:56;99657.25;;;10.39;100.00
20424;BME280;10371;49.042;8.002;2023-11-19T04:00:58;99664.91;;;10.41;100.00
20424;BME280;10371;49.042;8.002;2023-11-19T04:01:59;99669.88;;;10.44;100.00
20424;BME280;10371;49.042;8.002;2023-11-19T04:03:00;99669.16;;;10.42;100.00
20424;BME280;10371;49.042;8.002;2023-11-19T04:04:01;99665.06;;;10.39;100.00
20424;BME280;10371;49.042;8.002;2023-11-19T04:05:01;99664.47;;;10.36;100.00
20424;BME280;10371;49.042;8.002;2023-11-19T04:06:02;99663.28;;;10.40;100.00
20424;BME280;10371;49.042;8.002;2023-11-19T04:07:02;99661.25;;;10.43;100.00
20424;BME280;10371;49.042;8.002;2023-11-19T04:08:03;99660.16;;;10.46;100.00
20424;BME280;10371;49.042;8.002;2023-11-19T04:09:03;99653.31;;;10.45;100.00
20424;BME280;10371;49.042;8.002;2023-11-19T04:10:04;99653.88;;;10.48;100.00
20424;BME280;10371;49.042;8.002;2023-11-19T04:11:05;99649.50;;;10.49;100.00
20424;BME280;10371;49.042;8.002;2023-11-19T04:12:06;99652.81;;;10.51;100.00
20424;BME280;10371;49.042;8.002;2023-11-19T04:13:06;99658.25;;;10.48;100.00
20424;BME280;10371;49.042;8.002;2023-11-19T04:14:07;99662.75;;;10.46;100.00
20424;BME280;10371;49.042;8.002;2023-11-19T04:15:07;99656.59;;;10.47;100.00
20424;BME280;10371;49.042;8.002;2023-11-19T04:16:08;99659.91;;;10.49;100.00
20424;BME280;10371;49.042;8.002;2023-11-19T04:17:09;99659.91;;;10.49;100.00
20424;BME280;10371;49.042;8.002;2023-11-19T04:18:09;99650.56;;;10.46;100.00
20424;BME280;10371;49.042;8.002;2023-11-19T04:19:10;99654.69;;;10.49;100.00
20424;BME280;10371;49.042;8.002;2023-11-19T04:20:11;99649.50;;;10.49;100.00
20424;BME280;10371;49.042;8.002;2023-11-19T04:21:13;99652.03;;;10.60;100.00
20424;BME280;10371;49.042;8.002;2023-11-19T04:22:13;99649.56;;;10.59;100.00
20424;BME280;10371;49.042;8.002;2023-11-19T04:23:14;99652.28;;;10.57;100.00
20424;BME280;10371;49.042;8.002;2023-11-19T04:24:14;99647.06;;;10.57;100.00
20424;BME280;10371;49.042;8.002;2023-11-19T04:25:15;99652.03;;;10.60;100.00
20424;BME280;10371;49.042;8.002;2023-11-19T04:26:16;99643.50;;;10.58;100.00
20424;BME280;10371;49.042;8.002;2023-11-19T04:27:16;99655.00;;;10.56;100.00
20424;BME280;10371;49.042;8.002;2023-11-19T04:28:17;99646.53;;;10.54;100.00
20424;BME280;10371;49.042;8.002;2023-11-19T04:29:17;99649.13;;;10.54;100.00
20424;BME280;10371;49.042;8.002;2023-11-19T04:30:18;99644.03;;;10.52;100.00
20424;BME280;10371;49.042;8.002;2023-11-19T04:31:18;99653.38;;;10.55;100.00
20424;BME280;10371;49.042;8.002;2023-11-19T04:32:19;99650.25;;;10.61;100.00
20424;BME280;10371;49.042;8.002;2023-11-19T04:33:19;99651.66;;;10.65;100.00
20424;BME280;10371;49.042;8.002;2023-11-19T04:34:19;99647.53;;;10.62;100.00
20424;BME280;10371;49.042;8.002;2023-11-19T04:35:20;99637.22;;;10.61;100.00
20424;BME280;10371;49.042;8.002;2023-11-19T04:36:21;99641.50;;;10.62;100.00
20424;BME280;10371;49.042;8.002;2023-11-19T04:37:24;99636.03;;;10.65;100.00
20424;BME280;10371;49.042;8.002;2023-11-19T04:38:25;99636.72;;;10.67;100.00
20424;BME280;10371;49.042;8.002;2023-11-19T04:39:26;99642.06;;;10.65;100.00
20424;BME280;10371;49.042;8.002;2023-11-19T04:40:27;99639.19;;;10.68;100.00
20424;BME280;10371;49.042;8.002;2023-11-19T04:41:27;99635.88;;;10.66;100.00
20424;BME280;10371;49.042;8.002;2023-11-19T04:42:28;99635.06;;;10.66;100.00
20424;BME280;10371;49.042;8.002;2023-11-19T04:43:29;99639.19;;;10.68;100.00
20424;BME280;10371;49.042;8.002;2023-11-19T04:44:30;99649.34;;;10.71;100.00
20424;BME280;10371;49.042;8.002;2023-11-19T04:45:30;99641.53;;;10.71;100.00
20424;BME280;10371;49.042;8.002;2023-11-19T04:46:32;99641.28;;;10.74;100.00
20424;BME280;10371;49.042;8.002;2023-11-19T04:47:33;99640.09;;;10.79;100.00
20424;BME280;10371;49.042;8.002;2023-11-19T04:48:34;99637.75;;;10.76;100.00
20424;BME280;10371;49.042;8.002;2023-11-19T04:49:34;99631.56;;;10.77;100.00
20424;BME280;10371;49.042;8.002;2023-11-19T04:50:35;99640.09;;;10.79;100.00
20424;BME280;10371;49.042;8.002;2023-11-19T04:51:38;99640.19;;;10.77;100.00
20424;BME280;10371;49.042;8.002;2023-11-19T04:52:39;99635.69;;;10.79;100.00
20424;BME280;10371;49.042;8.002;2023-11-19T04:53:45;99636.50;;;10.80;100.00
20424;BME280;10371;49.042;8.002;2023-11-19T04:54:45;99644.06;;;10.83;100.00
20424;BME280;10371;49.042;8.002;2023-11-19T04:55:45;99651.75;;;10.84;100.00
20424;BME280;10371;49.042;8.002;2023-11-19T04:56:46;99654.09;;;10.87;100.00
20424;BME280;10371;49.042;8.002;2023-11-19T04:57:47;99649.00;;;10.86;100.00
20424;BME280;10371;49.042;8.002;2023-11-19T04:58:47;99645.47;;;10.87;100.00
20424;BME280;10371;49.042;8.002;2023-11-19T04:59:48;99648.75;;;10.89;100.00
20424;BME280;10371;49.042;8.002;2023-11-19T05:00:48;99652.06;;;10.91;100.00
20424;BME280;10371;49.042;8.002;2023-11-19T05:01:48;99646.03;;;10.90;100.00
20424;BME280;10371;49.042;8.002;2023-11-19T05:02:48;99649.44;;;10.91;100.00
20424;BME280;10371;49.042;8.002;2023-11-19T05:03:49;99652.75;;;10.93;100.00
20424;BME280;10371;49.042;8.002;2023-11-19T05:04:49;99644.78;;;10.94;100.00
20424;BME280;10371;49.042;8.002;2023-11-19T05:05:49;99639.31;;;10.98;100.00
20424;BME280;10371;49.042;8.002;2023-11-19T05:06:50;99647.72;;;11.01;100.00
20424;BME280;10371;49.042;8.002;2023-11-19T05:07:50;99645.13;;;11.01;100.00
20424;BME280;10371;49.042;8.002;2023-11-19T05:08:50;99646.75;;;11.02;100.00
20424;BME280;10371;49.042;8.002;2023-11-19T05:09:50;99647.44;;;11.04;100.00
20424;BME280;10371;49.042;8.002;2023-11-19T05:10:51;99649.25;;;11.04;100.00
20424;BME280;10371;49.042;8.002;2023-11-19T05:11:51;99646.50;;;11.05;100.00
20424;BME280;10371;49.042;8.002;2023-11-19T05:12:51;99643.88;;;11.05;100.00
20424;BME280;10371;49.042;8.002;2023-11-19T05:13:51;99651.69;;;11.05;100.00
20424;BME280;10371;49.042;8.002;2023-11-19T05:14:52;99649.91;;;11.06;100.00
20424;BME280;10371;49.042;8.002;2023-11-19T05:15:52;99640.63;;;11.13;100.00
20424;BME280;10371;49.042;8.002;2023-11-19T05:16:53;99630.47;;;11.10;100.00
20424;BME280;10371;49.042;8.002;2023-11-19T05:17:53;99633.78;;;11.12;100.00
20424;BME280;10371;49.042;8.002;2023-11-19T05:18:53;99637.91;;;11.14;100.00
20424;BME280;10371;49.042;8.002;2023-11-19T05:19:53;99642.41;;;11.12;100.00
20424;BME280;10371;49.042;8.002;2023-11-19T05:20:54;99638.03;;;11.13;100.00